Time;durP1;ratioP1;P1;durP2;ratioP2;P2;SDS_P1;SDS_P2;PMS_P1;PMS_P2;Temp;Humidity;BMP_temperature;BMP_pressure;BME280_temperature;BME280_humidity;BME280_pressure;Samples;Min_cycle;Max_cycle;Signal;HPM_P1;HPM_P2
2021/12/29 00:02:26;;;;;;;26.75;15.43;;;6.70;99.90;;;;;;2144934;66;20701;-66
2021/12/29 00:05:12;;;;;;;;;;;6.70;99.90;;;;;;2150903;66;20345;-66
2021/12/29 00:07:56;;;;;;;29.70;14.57;;;6.70;99.90;;;;;;2158753;66;20517;-67
2021/12/29 00:10:39;;;;;;;23.10;12.13;;;6.70;99.90;;;;;;2135404;67;20695;-66
2021/12/29 00:13:26;;;;;;;;;;;6.60;99.90;;;;;;2140479;66;20754;-67
2021/12/29 00:16:10;;;;;;;20.35;12.38;;;6.60;99.90;;;;;;2142946;66;20508;-66
2021/12/29 00:18:52;;;;;;;23.48;13.70;;;6.70;99.90;;;;;;2151353;66;20337;-66
2021/12/29 00:21:35;;;;;;;23.65;12.68;;;6.60;99.90;;;;;;2132278;67;20225;-66
2021/12/29 00:24:17;;;;;;;23.17;13.02;;;6.60;99.90;;;;;;2132304;67;20295;-65
2021/12/29 00:27:00;;;;;;;18.70;11.27;;;6.60;99.90;;;;;;2117295;67;20379;-66
2021/12/29 00:29:41;;;;;;;22.00;13.13;;;6.60;99.90;;;;;;2111096;67;20229;-66
2021/12/29 00:32:24;;;;;;;24.30;13.40;;;6.60;99.90;;;;;;2121700;67;20453;-65
2021/12/29 00:35:14;;;;;;;;;;;6.60;99.90;;;;;;2113445;67;20231;-65
2021/12/29 00:37:59;;;;;;;22.35;13.32;;;6.60;99.90;;;;;;2124897;67;20137;-65
2021/12/29 00:40:41;;;;;;;28.92;13.52;;;6.60;99.90;;;;;;2126226;67;20379;-66
2021/12/29 00:43:23;;;;;;;27.30;15.13;;;6.60;99.90;;;;;;2132361;67;20176;-66
2021/12/29 00:46:12;;;;;;;23.85;14.40;;;6.60;99.90;;;;;;2125573;67;20644;-67
2021/12/29 00:48:57;;;;;;;29.85;14.73;;;6.50;99.90;;;;;;2117555;67;20181;-66
2021/12/29 00:51:38;;;;;;;36.13;14.82;;;6.50;99.90;;;;;;2119462;67;20475;-66
2021/12/29 00:54:20;;;;;;;36.45;17.38;;;6.50;99.90;;;;;;2118650;67;20225;-66
2021/12/29 00:57:05;;;;;;;42.45;16.88;;;6.60;99.90;;;;;;2125837;67;20325;-65
2021/12/29 00:59:47;;;;;;;31.65;14.75;;;6.60;99.90;;;;;;2130618;67;20160;-66
2021/12/29 01:02:29;;;;;;;39.30;17.73;;;6.60;99.90;;;;;;2132365;66;20240;-66
2021/12/29 01:05:14;;;;;;;43.42;19.42;;;6.60;99.90;;;;;;2139624;67;20263;-66
2021/12/29 01:07:56;;;;;;;39.47;17.27;;;6.60;99.90;;;;;;2144988;66;20361;-66
2021/12/29 01:10:39;;;;;;;42.50;18.13;;;6.60;99.90;;;;;;2131924;67;20171;-67
2021/12/29 01:13:29;;;;;;;53.15;19.55;;;6.60;99.90;;;;;;2118298;67;20321;-66
2021/12/29 01:19:18;;;;;;;51.53;20.40;;;6.70;99.90;;;;;;2110256;67;20583;-66
2021/12/29 01:22:02;;;;;;;46.00;19.10;;;6.70;99.90;;;;;;2113725;67;20539;-66
2021/12/29 01:24:46;;;;;;;55.33;20.85;;;6.80;99.90;;;;;;2113068;67;20237;-67
2021/12/29 01:27:31;;;;;;;46.42;19.95;;;6.80;99.90;;;;;;2134140;67;20368;-66
2021/12/29 01:30:13;;;;;;;55.17;20.70;;;6.90;99.90;;;;;;2125288;67;20254;-65
2021/12/29 01:32:54;;;;;;;51.42;21.02;;;6.90;99.90;;;;;;2126384;67;20532;-66
2021/12/29 01:35:39;;;;;;;49.53;20.42;;;6.90;99.90;;;;;;2131793;67;20872;-67
2021/12/29 01:38:24;;;;;;;47.42;21.17;;;6.90;99.90;;;;;;2124179;67;20259;-65
2021/12/29 01:41:09;;;;;;;54.47;21.65;;;7.00;99.90;;;;;;2127203;67;20249;-68
2021/12/29 01:43:51;;;;;;;53.13;20.80;;;7.00;99.90;;;;;;2132012;67;20191;-66
2021/12/29 01:46:33;;;;;;;54.88;23.23;;;7.00;99.90;;;;;;2117421;67;20723;-66
2021/12/29 01:49:15;;;;;;;65.97;25.13;;;7.00;99.90;;;;;;2136100;67;20167;-65
2021/12/29 01:52:04;;;;;;;60.85;22.67;;;7.00;99.90;;;;;;2145500;66;20236;-66
2021/12/29 01:54:50;;;;;;;71.28;27.00;;;7.00;99.90;;;;;;2140872;66;20380;-67
2021/12/29 01:57:34;;;;;;;;;;;7.10;99.90;;;;;;2130696;67;20313;-67
2021/12/29 02:00:21;;;;;;;72.60;26.42;;;7.00;99.90;;;;;;2146526;66;20641;-66
2021/12/29 02:03:08;;;;;;;64.88;24.98;;;7.00;99.90;;;;;;2139158;67;20217;-66
2021/12/29 02:05:52;;;;;;;74.65;27.55;;;7.00;99.90;;;;;;2135376;67;20319;-66
2021/12/29 02:08:36;;;;;;;71.00;27.80;;;7.00;99.90;;;;;;2141946;66;20247;-66
2021/12/29 02:11:25;;;;;;;74.38;26.73;;;7.00;99.90;;;;;;2148665;66;20244;-66
2021/12/29 02:14:07;;;;;;;73.45;27.33;;;7.00;99.90;;;;;;2145937;66;20326;-66
2021/12/29 02:16:49;;;;;;;72.63;27.80;;;7.00;99.90;;;;;;2154898;66;20197;-67
2021/12/29 02:19:31;;;;;;;68.28;26.27;;;6.90;99.90;;;;;;2168310;66;20368;-66
2021/12/29 02:22:42;;;;;;;81.03;30.13;;;7.00;99.90;;;;;;2157783;66;20222;-66
2021/12/29 02:25:46;;;;;;;69.72;27.63;;;7.00;99.90;;;;;;2143681;66;20210;-66
2021/12/29 02:28:47;;;;;;;48.38;20.27;;;7.00;99.90;;;;;;2141853;66;20197;-66
2021/12/29 02:31:30;;;;;;;45.35;20.60;;;7.00;99.90;;;;;;2138945;66;20279;-66
2021/12/29 02:34:16;;;;;;;35.45;16.30;;;7.10;99.90;;;;;;2128098;67;20199;-66
2021/12/29 02:37:01;;;;;;;27.77;14.32;;;7.10;99.90;;;;;;2124363;67;20248;-65
2021/12/29 02:39:49;;;;;;;34.83;13.93;;;7.20;99.90;;;;;;2124745;67;20196;-66
2021/12/29 02:42:39;;;;;;;35.20;15.05;;;7.20;99.90;;;;;;2128346;67;20191;-66
2021/12/29 02:45:23;;;;;;;32.72;14.65;;;7.20;99.90;;;;;;2138703;66;20354;-66
2021/12/29 02:48:05;;;;;;;30.40;13.93;;;7.20;99.90;;;;;;2136018;66;20202;-67
2021/12/29 02:50:47;;;;;;;31.25;13.80;;;7.20;99.90;;;;;;2142137;66;20271;-66
2021/12/29 02:53:30;;;;;;;34.30;15.38;;;7.30;99.90;;;;;;2143048;66;20228;-65
2021/12/29 02:56:12;;;;;;;35.50;14.23;;;7.30;99.90;;;;;;2162418;66;20342;-66
2021/12/29 02:58:59;;;;;;;34.70;15.20;;;7.30;99.90;;;;;;2158096;66;20166;-66
2021/12/29 03:01:43;;;;;;;33.65;13.90;;;7.30;99.90;;;;;;2141369;66;20225;-66
2021/12/29 03:04:25;;;;;;;36.28;15.25;;;7.30;99.90;;;;;;2148273;66;20383;-67
2021/12/29 03:07:07;;;;;;;40.45;15.20;;;7.30;99.90;;;;;;2154233;66;20186;-66
2021/12/29 03:09:49;;;;;;;35.65;15.63;;;7.30;99.90;;;;;;2143145;66;20186;-66
2021/12/29 03:12:34;;;;;;;36.67;15.95;;;7.30;99.90;;;;;;2147904;66;20257;-66
2021/12/29 03:15:17;;;;;;;37.22;15.80;;;7.30;99.90;;;;;;2153203;66;20652;-67
2021/12/29 03:18:01;;;;;;;;;;;7.30;99.90;;;;;;2146275;66;20202;-66
2021/12/29 03:20:45;;;;;;;32.47;15.90;;;7.30;99.90;;;;;;2136735;67;20713;-66
2021/12/29 03:23:30;;;;;;;34.00;14.77;;;7.30;99.90;;;;;;2134643;67;20204;-66
2021/12/29 03:26:13;;;;;;;38.55;17.67;;;7.30;99.90;;;;;;2133281;67;20258;-66
2021/12/29 03:28:58;;;;;;;;;;;7.30;99.90;;;;;;2132407;67;20357;-66
2021/12/29 03:31:42;;;;;;;36.53;14.00;;;7.30;99.90;;;;;;2125397;67;20698;-66
2021/12/29 03:34:24;;;;;;;38.22;16.08;;;7.30;99.90;;;;;;2139115;67;20280;-67
2021/12/29 03:37:05;;;;;;;49.92;18.20;;;7.30;99.90;;;;;;2132368;67;20183;-66
2021/12/29 03:39:49;;;;;;;37.63;17.15;;;7.30;99.90;;;;;;2140149;67;20338;-66
2021/12/29 03:42:34;;;;;;;36.63;16.33;;;7.30;99.90;;;;;;2132384;67;20794;-66
2021/12/29 03:45:19;;;;;;;38.38;18.30;;;7.30;99.90;;;;;;2140004;67;20335;-66
2021/12/29 03:48:01;;;;;;;40.97;17.98;;;7.30;99.90;;;;;;2132333;67;20267;-65
2021/12/29 03:50:42;;;;;;;35.63;17.63;;;7.40;99.90;;;;;;2126366;67;20760;-65
2021/12/29 03:53:25;;;;;;;44.08;20.23;;;7.40;99.90;;;;;;2132848;67;20283;-66
2021/12/29 03:56:07;;;;;;;43.38;19.80;;;7.30;99.90;;;;;;2111379;67;20174;-66
2021/12/29 03:58:48;;;;;;;43.10;18.80;;;7.40;99.90;;;;;;2111612;67;20824;-66
2021/12/29 04:01:29;;;;;;;46.03;18.63;;;7.30;99.90;;;;;;2125529;67;20836;-67
2021/12/29 04:04:11;;;;;;;41.53;19.73;;;7.40;99.90;;;;;;2118030;67;20196;-66
2021/12/29 04:06:53;;;;;;;42.40;21.48;;;7.40;99.90;;;;;;2118915;67;20601;-66
2021/12/29 04:09:35;;;;;;;42.50;18.60;;;7.40;99.90;;;;;;2118044;67;20293;-66
2021/12/29 04:12:17;;;;;;;37.55;19.75;;;7.40;99.90;;;;;;2105203;67;20211;-66
2021/12/29 04:15:00;;;;;;;44.22;18.80;;;7.40;99.90;;;;;;2102675;67;20169;-65
2021/12/29 04:17:45;;;;;;;;;;;7.40;99.90;;;;;;2111932;67;20226;-66
2021/12/29 04:23:35;;;;;;;45.53;21.08;;;7.40;99.90;;;;;;2131744;67;20287;-66
2021/12/29 04:26:19;;;;;;;43.75;21.17;;;7.40;99.90;;;;;;2118248;67;20196;-65
2021/12/29 04:29:01;;;;;;;36.30;17.70;;;6.50;99.90;;;;;;2113116;67;20354;-66
2021/12/29 04:31:43;;;;;;;38.67;19.65;;;7.40;99.90;;;;;;2125507;67;20379;-66
2021/12/29 04:34:25;;;;;;;38.28;17.92;;;7.40;99.90;;;;;;2119225;67;20220;-66
2021/12/29 04:37:07;;;;;;;36.38;20.30;;;7.60;99.90;;;;;;2124667;67;20666;-66
2021/12/29 04:39:49;;;;;;;40.53;20.45;;;7.50;99.90;;;;;;2117338;67;20719;-66
2021/12/29 04:42:31;;;;;;;37.63;18.52;;;7.50;99.90;;;;;;2118278;67;20803;-66
2021/12/29 04:45:17;;;;;;;37.42;19.85;;;7.50;99.90;;;;;;2124909;67;20401;-67
2021/12/29 04:48:01;;;;;;;38.05;19.42;;;7.50;99.90;;;;;;2125757;67;20233;-66
2021/12/29 04:50:52;;;;;;;36.72;21.13;;;7.50;99.90;;;;;;2119307;67;20168;-66
2021/12/29 04:53:36;;;;;;;39.10;21.55;;;7.50;99.90;;;;;;2118032;67;20173;-66
2021/12/29 04:56:18;;;;;;;44.05;20.17;;;7.50;99.90;;;;;;2124940;67;20389;-66
2021/12/29 04:59:00;;;;;;;36.10;21.02;;;7.60;99.90;;;;;;2121977;67;20355;-66
2021/12/29 05:01:44;;;;;;;41.40;20.45;;;7.60;99.90;;;;;;2125936;67;20180;-66
2021/12/29 05:04:32;;;;;;;40.30;21.75;;;7.50;99.90;;;;;;2131224;67;20292;-66
2021/12/29 05:10:15;;;;;;;39.17;19.80;;;7.60;99.90;;;;;;2131185;67;20333;-66
2021/12/29 05:12:57;;;;;;;32.95;19.35;;;7.60;99.90;;;;;;2124832;67;20820;-66
2021/12/29 05:15:39;;;;;;;39.03;21.42;;;7.50;99.90;;;;;;2124944;67;20612;-67
2021/12/29 05:18:20;;;;;;;45.22;22.27;;;7.60;99.90;;;;;;2123114;67;20165;-66
2021/12/29 05:21:06;;;;;;;38.03;19.60;;;7.60;99.90;;;;;;2112732;67;20882;-66
2021/12/29 05:23:48;;;;;;;41.17;20.52;;;7.60;99.90;;;;;;2119062;67;20363;-67
2021/12/29 05:26:31;;;;;;;44.88;20.25;;;7.60;99.90;;;;;;2110463;67;20165;-67
2021/12/29 05:29:16;;;;;;;39.63;20.25;;;7.60;99.90;;;;;;2125901;67;20718;-66
2021/12/29 05:31:58;;;;;;;42.08;19.23;;;7.60;99.90;;;;;;2115372;67;20601;-67
2021/12/29 05:34:40;;;;;;;43.95;21.00;;;7.60;99.90;;;;;;2125856;67;20592;-66
2021/12/29 05:37:21;;;;;;;38.17;18.83;;;7.60;99.90;;;;;;2144606;66;20788;-67
2021/12/29 05:40:04;;;;;;;35.90;19.58;;;7.60;99.90;;;;;;2151015;66;20351;-67
2021/12/29 05:42:47;;;;;;;37.33;18.85;;;7.60;99.90;;;;;;2143758;66;20171;-66
2021/12/29 05:45:32;;;;;;;45.60;20.92;;;7.60;99.90;;;;;;2132044;67;20175;-66
2021/12/29 05:48:13;;;;;;;41.58;19.88;;;7.60;99.90;;;;;;2122101;67;20172;-66
2021/12/29 05:50:55;;;;;;;38.30;20.38;;;7.60;99.90;;;;;;2124649;67;20299;-65
2021/12/29 05:53:37;;;;;;;37.85;18.42;;;7.60;99.90;;;;;;2127454;67;20175;-66
2021/12/29 05:56:19;;;;;;;42.25;20.92;;;7.60;99.90;;;;;;2133426;67;20514;-66
2021/12/29 05:59:03;;;;;;;31.90;18.23;;;7.60;99.90;;;;;;2137473;67;20200;-66
2021/12/29 06:01:47;;;;;;;40.00;19.33;;;7.60;99.90;;;;;;2137782;67;20214;-67
2021/12/29 06:04:29;;;;;;;36.25;18.83;;;7.60;99.90;;;;;;2132097;67;20344;-66
2021/12/29 06:07:13;;;;;;;33.78;19.15;;;7.70;99.90;;;;;;2125998;67;20203;-66
2021/12/29 06:09:55;;;;;;;38.00;20.15;;;7.60;99.90;;;;;;2125376;67;20389;-66
2021/12/29 06:12:38;;;;;;;36.47;19.30;;;7.60;99.90;;;;;;2127452;67;20180;-66
2021/12/29 06:15:19;;;;;;;33.17;17.30;;;7.60;99.90;;;;;;2110934;67;20500;-66
2021/12/29 06:18:02;;;;;;;31.45;18.02;;;7.60;99.90;;;;;;2120077;67;20341;-66
2021/12/29 06:20:44;;;;;;;32.03;19.20;;;7.70;99.90;;;;;;2131984;67;20246;-66
2021/12/29 06:23:26;;;;;;;34.35;18.17;;;7.70;99.90;;;;;;2141817;66;20473;-66
2021/12/29 06:26:08;;;;;;;34.33;19.05;;;7.70;99.90;;;;;;2139005;66;20390;-65
2021/12/29 06:28:49;;;;;;;35.08;18.98;;;7.70;99.90;;;;;;2133138;67;20251;-67
2021/12/29 06:31:32;;;;;;;36.85;20.50;;;7.70;99.90;;;;;;2132261;67;20270;-66
2021/12/29 06:34:14;;;;;;;39.15;21.90;;;7.70;99.90;;;;;;1904844;66;15176869;-66
2021/12/29 06:37:03;;;;;;;41.90;21.10;;;7.70;99.90;;;;;;2153152;66;20321;-66
2021/12/29 06:39:46;;;;;;;40.45;20.33;;;7.70;99.90;;;;;;2144213;66;20346;-66
2021/12/29 06:42:28;;;;;;;39.88;20.50;;;7.70;99.90;;;;;;2141273;66;20376;-67
2021/12/29 06:45:11;;;;;;;47.97;20.95;;;7.70;99.90;;;;;;2133931;67;20279;-67
2021/12/29 06:47:53;;;;;;;44.17;22.25;;;7.70;99.90;;;;;;2126488;67;20293;-66
2021/12/29 06:50:39;;;;;;;44.95;21.42;;;7.70;99.90;;;;;;2112816;67;20243;-66
2021/12/29 06:53:20;;;;;;;49.03;23.90;;;7.70;99.90;;;;;;2126430;67;20180;-66
2021/12/29 06:56:02;;;;;;;46.72;21.88;;;7.70;99.90;;;;;;2112541;67;20165;-66
2021/12/29 06:58:44;;;;;;;47.78;22.90;;;7.70;99.90;;;;;;2105987;68;20364;-67
2021/12/29 07:01:25;;;;;;;46.17;21.38;;;7.80;99.90;;;;;;2105590;67;20170;-65
2021/12/29 07:04:08;;;;;;;45.22;20.63;;;7.80;99.90;;;;;;2119562;67;20812;-67
2021/12/29 07:06:53;;;;;;;45.25;21.75;;;7.80;99.90;;;;;;2115086;67;20712;-67
2021/12/29 07:09:36;;;;;;;52.85;22.65;;;7.80;99.90;;;;;;2119681;67;20239;-67
2021/12/29 07:12:20;;;;;;;;;;;8.00;99.90;;;;;;2126953;67;20480;-66
2021/12/29 07:15:02;;;;;;;49.03;21.67;;;7.80;99.90;;;;;;2126933;67;20072;-66
2021/12/29 07:17:47;;;;;;;51.07;23.10;;;7.80;99.90;;;;;;2124209;67;20855;-67
2021/12/29 07:20:30;;;;;;;50.38;24.45;;;7.80;99.90;;;;;;2128365;67;20164;-66
2021/12/29 07:23:14;;;;;;;53.70;24.02;;;7.70;99.90;;;;;;2107405;67;20357;-66
2021/12/29 07:25:55;;;;;;;65.95;23.13;;;7.80;99.90;;;;;;2096141;68;20353;-66
2021/12/29 07:28:40;;;;;;;58.30;24.00;;;7.80;99.90;;;;;;2078747;68;20333;-66
2021/12/29 07:31:22;;;;;;;55.95;23.38;;;7.80;99.90;;;;;;2092983;68;20421;-66
2021/12/29 07:34:04;;;;;;;67.13;25.15;;;7.70;99.90;;;;;;2105600;67;20280;-66
2021/12/29 07:36:45;;;;;;;51.10;23.65;;;7.70;99.90;;;;;;2109010;67;20292;-66
2021/12/29 07:39:27;;;;;;;60.95;26.35;;;7.70;99.90;;;;;;2113473;67;20173;-67
2021/12/29 07:42:09;;;;;;;57.00;22.70;;;7.70;99.90;;;;;;2126596;67;20196;-66
2021/12/29 07:44:51;;;;;;;58.25;24.98;;;7.70;99.90;;;;;;2123146;67;20396;-66
2021/12/29 07:47:54;;;;;;;60.42;25.13;;;7.70;99.90;;;;;;2124182;67;20779;-66
2021/12/29 07:50:37;;;;;;;49.65;23.90;;;7.70;99.90;;;;;;2130901;67;20484;-67
2021/12/29 07:53:19;;;;;;;55.88;23.92;;;7.70;99.90;;;;;;2125488;67;20284;-66
2021/12/29 07:56:01;;;;;;;54.17;21.85;;;7.70;99.90;;;;;;2117717;67;20335;-65
2021/12/29 07:58:44;;;;;;;54.45;22.75;;;7.70;99.90;;;;;;2126318;67;20700;-66
2021/12/29 08:01:30;;;;;;;69.78;23.25;;;7.70;99.90;;;;;;2132899;67;20263;-67
2021/12/29 08:04:16;;;;;;;55.35;22.10;;;7.70;99.90;;;;;;2146121;66;20249;-67
2021/12/29 08:06:57;;;;;;;62.03;24.83;;;7.80;99.90;;;;;;2145667;66;20327;-67
2021/12/29 08:09:39;;;;;;;53.60;22.05;;;7.90;99.90;;;;;;2144356;66;20810;-68
2021/12/29 08:12:21;;;;;;;47.88;22.98;;;7.70;99.90;;;;;;2136812;66;20219;-66
2021/12/29 08:15:04;;;;;;;47.05;22.70;;;7.70;99.90;;;;;;2147291;66;20299;-67
2021/12/29 08:17:47;;;;;;;79.10;28.55;;;7.70;99.90;;;;;;2137764;66;20227;-66
2021/12/29 08:20:32;;;;;;;;;;;7.70;99.90;;;;;;2111185;67;20189;-67
2021/12/29 08:23:14;;;;;;;59.45;26.17;;;7.70;99.90;;;;;;2117919;67;20259;-66
2021/12/29 08:25:57;;;;;;;50.92;23.15;;;7.70;99.90;;;;;;2132190;67;20167;-67
2021/12/29 08:28:42;;;;;;;51.58;21.25;;;7.70;99.90;;;;;;2140041;66;20213;-66
2021/12/29 08:31:27;;;;;;;39.13;18.13;;;7.70;99.90;;;;;;2146504;66;20369;-66
2021/12/29 08:34:10;;;;;;;43.35;19.38;;;7.70;99.90;;;;;;2146391;66;20265;-65
2021/12/29 08:36:51;;;;;;;37.53;19.10;;;7.70;99.90;;;;;;2146561;66;20635;-66
2021/12/29 08:39:34;;;;;;;38.42;19.02;;;7.70;99.90;;;;;;2137866;66;20491;-66
2021/12/29 08:42:19;;;;;;;;;;;7.70;99.90;;;;;;2128523;67;20358;-66
2021/12/29 08:45:00;;;;;;;39.67;18.30;;;7.70;99.90;;;;;;2126460;67;20317;-67
2021/12/29 08:47:43;;;;;;;45.67;20.38;;;7.70;99.90;;;;;;2128838;67;20344;-66
2021/12/29 08:50:45;;;;;;;45.13;19.75;;;7.70;99.90;;;;;;2124100;67;21299;-66
2021/12/29 08:53:32;;;;;;;44.88;19.75;;;7.70;99.90;;;;;;2118005;67;20165;-66
2021/12/29 08:56:16;;;;;;;52.75;21.00;;;7.70;99.90;;;;;;2127071;67;20660;-66
2021/12/29 08:58:58;;;;;;;42.70;20.27;;;7.70;99.90;;;;;;2124444;67;20321;-67
2021/12/29 09:01:40;;;;;;;38.75;17.77;;;7.70;99.90;;;;;;2110342;67;20238;-66
2021/12/29 09:04:23;;;;;;;49.88;20.05;;;7.70;99.90;;;;;;2104586;67;20257;-67
2021/12/29 09:07:05;;;;;;;47.35;19.15;;;7.70;99.90;;;;;;2121762;67;20741;-67
2021/12/29 09:09:47;;;;;;;44.13;19.52;;;7.80;99.90;;;;;;2142283;66;20436;-66
2021/12/29 09:12:32;;;;;;;44.65;20.25;;;7.80;99.90;;;;;;2125328;67;20285;-66
2021/12/29 09:15:14;;;;;;;50.60;23.33;;;7.80;99.90;;;;;;2136388;66;21394;-66
2021/12/29 09:17:55;;;;;;;78.10;25.80;;;8.20;99.90;;;;;;2149735;66;20301;-67
2021/12/29 09:20:44;;;;;;;94.28;29.38;;;7.80;99.90;;;;;;2136548;66;20267;-66
2021/12/29 09:23:26;;;;;;;59.15;20.52;;;7.80;99.90;;;;;;2138693;66;20330;-66
2021/12/29 09:26:11;;;;;;;58.13;22.00;;;7.80;99.90;;;;;;2146955;66;20757;-67
2021/12/29 09:28:55;;;;;;;62.92;20.23;;;7.90;99.90;;;;;;2146992;66;20280;-66
2021/12/29 09:31:37;;;;;;;62.42;19.77;;;7.90;99.90;;;;;;2137584;66;20171;-66
2021/12/29 09:34:20;;;;;;;51.13;18.50;;;8.00;99.90;;;;;;2144803;66;20927;-66
2021/12/29 09:37:05;;;;;;;52.25;18.50;;;7.90;99.90;;;;;;2143468;66;20229;-67
2021/12/29 09:39:47;;;;;;;54.88;17.40;;;8.00;99.90;;;;;;2131669;66;20266;-67
2021/12/29 09:42:28;;;;;;;44.90;16.02;;;8.00;99.90;;;;;;2136593;66;20254;-66
2021/12/29 09:45:11;;;;;;;70.30;18.80;;;8.10;99.90;;;;;;2137198;66;20200;-67
2021/12/29 09:47:56;;;;;;;55.70;17.38;;;8.00;99.90;;;;;;2146337;66;20438;-66
2021/12/29 09:50:40;;;;;;;47.00;15.32;;;8.10;99.90;;;;;;2129925;67;20404;-67
2021/12/29 09:53:25;;;;;;;47.85;15.15;;;8.10;99.90;;;;;;2139108;66;20241;-66
2021/12/29 09:56:09;;;;;;;50.45;16.55;;;8.30;99.90;;;;;;2150053;66;20496;-66
2021/12/29 09:58:52;;;;;;;53.42;16.17;;;8.10;99.90;;;;;;2150559;66;20341;-66
2021/12/29 10:01:34;;;;;;;58.20;15.70;;;8.10;99.90;;;;;;2153283;66;20829;-66
2021/12/29 10:04:16;;;;;;;54.97;15.73;;;8.20;99.90;;;;;;2138575;66;20170;-67
2021/12/29 10:06:58;;;;;;;48.30;15.57;;;8.10;99.90;;;;;;2149780;66;20442;-67
2021/12/29 10:09:39;;;;;;;33.92;14.77;;;8.20;99.90;;;;;;2158862;66;20758;-66
2021/12/29 10:12:22;;;;;;;38.65;14.32;;;8.20;99.90;;;;;;2136537;66;20825;-69
2021/12/29 10:15:08;;;;;;;31.90;15.05;;;8.30;99.90;;;;;;2143908;66;20174;-65
2021/12/29 10:17:50;;;;;;;27.38;12.25;;;8.80;99.90;;;;;;2150696;66;20189;-66
2021/12/29 10:20:31;;;;;;;30.13;13.55;;;8.40;99.90;;;;;;2157547;66;20197;-65
2021/12/29 10:23:18;;;;;;;23.25;12.57;;;8.40;99.90;;;;;;2164931;65;20662;-68
2021/12/29 10:26:11;;;;;;;24.83;12.05;;;8.50;99.90;;;;;;2158495;66;20999;-65
2021/12/29 10:28:56;;;;;;;24.15;12.45;;;8.40;99.90;;;;;;2150759;66;20233;-65
2021/12/29 10:31:44;;;;;;;22.27;10.40;;;8.40;99.90;;;;;;2135557;66;20370;-66
2021/12/29 10:34:29;;;;;;;21.63;10.93;;;8.40;99.90;;;;;;2120446;67;20788;-66
2021/12/29 10:37:12;;;;;;;25.23;11.88;;;8.40;99.90;;;;;;2122758;67;20516;-65
2021/12/29 10:39:59;;;;;;;20.15;10.80;;;8.40;99.90;;;;;;2110397;67;20186;-65
2021/12/29 10:42:41;;;;;;;20.65;12.10;;;8.40;99.90;;;;;;2116752;67;20717;-67
2021/12/29 10:45:33;;;;;;;22.63;12.65;;;8.40;99.90;;;;;;2119057;67;20673;-66
2021/12/29 10:48:27;;;;;;;17.95;10.77;;;8.50;99.90;;;;;;2122814;67;20426;-66
2021/12/29 10:51:09;;;;;;;19.20;10.95;;;8.50;99.90;;;;;;2119671;67;20857;-65
2021/12/29 10:54:06;;;;;;;20.27;10.70;;;8.60;99.90;;;;;;2128570;67;20280;-66
2021/12/29 10:57:05;;;;;;;19.33;10.07;;;8.60;99.90;;;;;;2121325;67;20380;-65
2021/12/29 10:59:57;;;;;;;17.58;10.40;;;8.60;99.90;;;;;;2100861;67;20632;-65
2021/12/29 11:02:45;;;;;;;21.17;9.93;;;8.70;99.90;;;;;;2113148;67;21047;-66
2021/12/29 11:05:40;;;;;;;20.92;10.20;;;8.70;99.90;;;;;;2108088;67;20641;-65
2021/12/29 11:08:22;;;;;;;15.40;9.07;;;8.70;99.90;;;;;;2109582;67;20330;-65
2021/12/29 11:11:06;;;;;;;17.35;10.43;;;8.70;99.90;;;;;;2101781;67;20182;-65
2021/12/29 11:13:48;;;;;;;16.83;9.45;;;8.70;99.90;;;;;;2113790;67;20674;-65
2021/12/29 11:16:30;;;;;;;15.23;8.43;;;8.70;99.90;;;;;;2117446;67;20273;-66
2021/12/29 11:19:12;;;;;;;12.65;7.60;;;8.70;99.90;;;;;;2112779;67;20815;-66
2021/12/29 11:22:24;;;;;;;14.35;7.97;;;8.60;99.90;;;;;;2109316;67;20417;-65
2021/12/29 11:25:06;;;;;;;15.30;8.63;;;8.60;99.90;;;;;;2110003;67;20307;-66
2021/12/29 11:27:47;;;;;;;14.07;7.85;;;8.60;99.90;;;;;;2116120;67;20238;-65
2021/12/29 11:30:31;;;;;;;18.90;7.55;;;7.80;99.90;;;;;;2128739;67;20999;-66
2021/12/29 11:33:15;;;;;;;;;;;8.60;99.90;;;;;;2118245;67;20236;-66
2021/12/29 11:35:56;;;;;;;14.98;8.75;;;8.50;99.90;;;;;;2115555;67;20145;-65
2021/12/29 11:38:38;;;;;;;16.92;8.68;;;8.60;99.90;;;;;;2117446;67;20607;-66
2021/12/29 11:41:21;;;;;;;18.02;7.88;;;8.60;99.90;;;;;;2121306;67;20309;-65
2021/12/29 11:44:02;;;;;;;21.73;10.15;;;8.60;99.90;;;;;;2101474;68;20293;-65
2021/12/29 11:46:44;;;;;;;19.73;9.02;;;8.60;99.90;;;;;;2101287;68;20472;-65
2021/12/29 11:49:26;;;;;;;16.73;9.00;;;8.60;99.90;;;;;;2109409;67;20273;-66
2021/12/29 11:52:17;;;;;;;17.17;9.38;;;8.70;99.90;;;;;;2110771;67;20464;-66
2021/12/29 11:55:12;;;;;;;16.52;8.48;;;8.70;99.90;;;;;;2115443;67;20278;-65
2021/12/29 11:57:54;;;;;;;16.55;9.00;;;8.70;99.90;;;;;;2123217;67;20206;-66
2021/12/29 12:00:36;;;;;;;20.85;8.95;;;8.70;99.90;;;;;;2129628;67;20350;-65
2021/12/29 12:03:18;;;;;;;14.27;8.82;;;8.70;99.90;;;;;;2121811;67;20313;-65
2021/12/29 12:06:00;;;;;;;15.25;8.52;;;8.70;99.90;;;;;;2108246;67;20195;-66
2021/12/29 12:08:42;;;;;;;16.73;8.40;;;8.70;99.90;;;;;;2105772;67;20322;-66
2021/12/29 12:11:28;;;;;;;16.02;8.15;;;8.80;99.90;;;;;;2104050;67;20203;-66
2021/12/29 12:14:19;;;;;;;;;;;8.90;99.90;;;;;;2115864;67;20494;-66
2021/12/29 12:17:25;;;;;;;14.88;8.43;;;8.80;99.90;;;;;;2115801;67;20180;-66
2021/12/29 12:20:17;;;;;;;17.92;9.10;;;8.80;99.90;;;;;;2120668;67;20319;-66
2021/12/29 12:22:58;;;;;;;19.42;9.40;;;8.80;99.90;;;;;;2116331;67;20305;-66
2021/12/29 12:25:42;;;;;;;14.15;7.28;;;8.80;99.90;;;;;;2117549;67;20302;-65
2021/12/29 12:28:26;;;;;;;;;;;8.80;99.90;;;;;;2107297;67;20209;-65
2021/12/29 12:31:09;;;;;;;13.40;7.90;;;8.80;99.90;;;;;;2109881;67;20111;-67
2021/12/29 12:34:07;;;;;;;17.25;7.22;;;8.80;99.90;;;;;;2118345;67;20181;-66
2021/12/29 12:36:51;;;;;;;13.20;6.00;;;8.80;99.90;;;;;;2118061;67;20169;-65
2021/12/29 12:39:33;;;;;;;16.70;7.00;;;8.80;99.90;;;;;;2117987;67;20203;-66
2021/12/29 12:42:18;;;;;;;20.05;6.85;;;8.80;99.90;;;;;;2117641;67;20208;-66
2021/12/29 12:45:16;;;;;;;18.15;7.00;;;8.80;99.90;;;;;;2123385;67;20341;-67
2021/12/29 12:48:26;;;;;;;17.25;8.13;;;8.90;99.90;;;;;;2138227;66;20206;-67
2021/12/29 12:51:18;;;;;;;21.80;9.55;;;8.90;99.90;;;;;;2139112;66;20318;-68
2021/12/29 12:54:18;;;;;;;16.33;7.20;;;8.80;99.90;;;;;;2135997;67;20745;-68
2021/12/29 12:57:07;;;;;;;16.85;8.65;;;8.80;99.90;;;;;;2126642;67;20808;-66
2021/12/29 12:59:56;;;;;;;11.32;7.00;;;8.90;99.90;;;;;;2132069;67;20428;-66
2021/12/29 13:02:46;;;;;;;15.00;5.68;;;9.20;99.90;;;;;;2136163;66;20348;-67
2021/12/29 13:05:42;;;;;;;11.57;5.90;;;8.80;99.90;;;;;;2139638;66;20347;-67
2021/12/29 13:08:35;;;;;;;10.25;5.15;;;8.80;99.90;;;;;;2143618;66;20270;-69
2021/12/29 13:11:24;;;;;;;14.85;5.65;;;8.80;99.90;;;;;;2125371;66;20188;-66
2021/12/29 13:14:09;;;;;;;15.88;5.53;;;8.80;99.90;;;;;;2116438;67;20246;-66
2021/12/29 13:16:51;;;;;;;9.98;5.28;;;8.70;99.90;;;;;;2126302;67;20685;-67
2021/12/29 13:19:33;;;;;;;17.15;5.75;;;8.70;99.90;;;;;;2127232;67;20179;-67
2021/12/29 13:22:33;;;;;;;8.60;5.25;;;8.70;99.90;;;;;;2133444;66;20230;-66
2021/12/29 13:25:21;;;;;;;10.55;4.85;;;8.70;99.90;;;;;;2142773;66;20206;-67
2021/12/29 13:28:12;;;;;;;11.07;4.40;;;8.60;99.90;;;;;;2127055;67;20345;-67
2021/12/29 13:31:01;;;;;;;11.75;5.07;;;8.60;99.90;;;;;;2131779;66;20239;-66
2021/12/29 13:33:47;;;;;;;10.82;5.30;;;8.60;99.90;;;;;;2114088;67;20459;-66
2021/12/29 13:36:32;;;;;;;15.65;5.68;;;8.60;99.90;;;;;;2118222;67;20230;-66
2021/12/29 13:39:14;;;;;;;10.48;4.90;;;8.60;99.90;;;;;;2115198;67;20585;-66
2021/12/29 13:41:56;;;;;;;10.15;4.45;;;8.70;99.90;;;;;;2124121;67;20492;-66
2021/12/29 13:44:38;;;;;;;11.95;4.40;;;8.60;99.90;;;;;;2114697;67;20318;-66
2021/12/29 13:47:23;;;;;;;11.32;4.70;;;8.60;99.90;;;;;;2117066;67;20196;-68
2021/12/29 13:50:14;;;;;;;9.65;4.20;;;8.60;99.90;;;;;;2117035;67;20483;-68
2021/12/29 13:53:05;;;;;;;9.52;5.05;;;8.60;99.90;;;;;;2104732;67;20272;-68
2021/12/29 13:55:47;;;;;;;11.68;5.82;;;8.50;99.90;;;;;;2105248;67;20535;-68
2021/12/29 13:58:29;;;;;;;10.20;4.60;;;8.50;99.90;;;;;;2116013;67;20673;-68
2021/12/29 14:01:11;;;;;;;8.02;6.38;;;8.50;99.90;;;;;;2107206;67;20206;-66
2021/12/29 14:03:52;;;;;;;9.00;6.20;;;8.50;99.90;;;;;;2102387;67;21004;-67
2021/12/29 14:06:35;;;;;;;21.67;15.35;;;8.40;99.90;;;;;;2123146;67;20172;-69
2021/12/29 14:09:23;;;;;;;13.77;7.78;;;8.40;99.90;;;;;;2114532;67;20184;-66
2021/12/29 14:12:13;;;;;;;10.68;5.82;;;8.40;99.90;;;;;;2116607;67;20325;-68
2021/12/29 14:15:02;;;;;;;17.60;6.63;;;8.40;99.90;;;;;;2104430;67;20235;-69
2021/12/29 14:17:45;;;;;;;11.10;5.68;;;8.30;99.90;;;;;;2098557;68;20271;-66
2021/12/29 14:20:31;;;;;;;11.90;6.03;;;8.30;99.90;;;;;;2080261;68;20342;-69
2021/12/29 14:23:16;;;;;;;15.95;6.18;;;8.30;99.90;;;;;;2110305;67;20283;-68